Donnelly, Canada
Current Conditions -  °F | °C
As of 9:00 AM on Saturday 25 Oct 2014 (Local Time) from CYPE Reporting Station
Overcast Overcast  
Wind Chill: 23°   Ceiling: 25000
Heat Index: 23°   Visibility: 15mi
Dew Point: 23°   Wind: 2mph
Humidity: 100%   Direction: NA
Pressure: 29.92"   Gusts: NA
Location:  55.73°N, 117.12°W
Report Text: CYPE 251500Z VRB02KT 15SM OVC250 M05/M05 A2992 RMK CI8 FROIN SLP161
Loading
Personal Weather Stations






























Interactive Weather Map
Tropical Storm Tracking
New forecast layout! Learn more

10-Day Weather Forecast

Advertisements
Track Severe Weather on mobile